Tiempo atmosférico en la estación meteorológica de Barcena de Cicero, Treto, Cantabria (10 m.)



Fecha
DESCASC
Temp. máxima en grados centígrados (hora)
DESCASC
Temp. mínima en grados centígrados (hora)
DESCASC
Temp. media en grados centígrados
DESCASC
Racha de viento máxima en m/sg (hora)
DESCASC
Velocidad máxima media en intervalos de 10 minutos(hora)
DESCASC
Precipitaciones diarias en mm
DESCASC
Precipitaciones de 00:00 a 06:00 en mm
DESCASC
Precipitaciones de 06:00 a 12:00 en mm
DESCASC
Precipitaciones de 12:00 a 18:00 en mm
DESCASC
Precipitaciones de 18:00 a 24:00 en mm
DESCASC
03-12-2020 15 (14:30) 6.4 (08:20) 10.7 13.33 (22:40) 6.39 (22:40) 18 0 0 0 18
02-12-2020 13.4 (12:00) 6.3 (22:00) 9.8 7.22 (03:10) 4.72 (03:10) 0.2 0 0.2 0 0
01-12-2020 13.7 (14:40) 4.6 (08:50) 9.1 7.22 (21:00) 4.17 (20:50) 5.2 0 0 0 5.2
30-11-2020 13.6 (15:20) 5.9 (00:00) 9.8 5 (03:30) 3.33 (08:10) 0 0 0 0 0
29-11-2020 18.4 (14:40) 6.4 (00:00) 12.4 8.33 (00:40) 4.17 (00:20) 0 0 0 0 0
28-11-2020 19.5 (13:50) 4.9 (00:00) 12.2 5.56 (17:00) 3.89 (16:50) 0 0 0 0 0
27-11-2020 16.5 (14:30) 7.1 (00:00) 11.8 3.61 (15:20) 1.94 (00:10) 0 0 0 0 0
26-11-2020 18.3 (12:30) 10.8 (00:00) 14.5 7.5 (10:50) 4.17 (13:50) 0 0 0 0 0
25-11-2020 18.1 (13:30) 5.8 (00:00) 12 7.5 (06:50) 3.89 (07:00) 0 0 0 0 0
24-11-2020 17.4 (13:10) 3.7 (00:00) 10.5 5 (13:00) 2.5 (10:10) 0 0 0 0 0
23-11-2020 16 (14:40) 3.8 (00:00) 9.9 6.11 (06:20) 3.61 (03:40) 0 0 0 0 0
22-11-2020 16.2 (14:40) 2.4 (00:00) 9.3 5.28 (00:50) 3.33 (09:20) 0 0 0 0 0
21-11-2020 13.1 (14:50) 4.2 (00:00) 8.7 9.44 (15:20) 6.39 (15:10) 0 0 0 0 0
20-11-2020 15.4 (14:00) 7.3 (00:00) 11.3 7.22 (15:20) 4.72 (15:20) 0 0 0 0 0
19-11-2020 14.7 (06:20) 10.6 (00:00) 12.7 5.28 (00:40) 2.78 (08:10) 4.8 0.6 4 0.2 0
18-11-2020 21.2 (14:10) 7.1 (00:00) 14.2 5.28 (10:10) 3.33 (22:50) 0 0 0 0 0
17-11-2020 18 (15:10) 6.5 (00:00) 12.3 6.11 (04:10) 3.61 (04:10) 0 0 0 0 0
16-11-2020 16.6 (14:40) 8.9 (00:00) 12.8 5.83 (02:10) 2.78 (02:10) 0.6 0.2 0.4 0 0
15-11-2020 23.5 (11:50) 11.9 (00:00) 17.7 11.39 (13:30) 6.94 (13:30) 2.4 0 0 1.2 1.2
14-11-2020 23.7 (14:50) 6.8 (00:00) 15.3 5.83 (20:30) 2.5 (14:30) 0 0 0 0 0
13-11-2020 21.6 (13:50) 8 (00:00) 14.8 6.39 (09:20) 3.61 (13:00) 0 0 0 0 0
12-11-2020 18.8 (12:40) 9.6 (00:00) 14.2 4.72 (04:00) 2.78 (10:30) -- 0 -- 0 0
11-11-2020 18.5 (14:00) 5.8 (00:00) 12.2 3.33 (15:50) 2.22 (19:40) 0 0 0 0 0
10-11-2020 18.4 (13:10) 9.8 (00:00) 14.1 6.39 (15:30) 4.17 (16:10) 10.2 10.2 0 0 0
09-11-2020 21.1 (12:20) 12 (00:00) 16.6 6.39 (05:50) 3.33 (01:00) 1.2 1.2 0 0 0
08-11-2020 23 (14:40) 9.3 (00:00) 16.2 8.61 (12:40) 5 (12:40) 0 0 0 0 0
07-11-2020 22 (14:10) 10.4 (00:00) 16.2 13.61 (05:40) 7.22 (06:00) 0.4 0 0.4 0 0
06-11-2020 22.2 (13:30) 15.8 (00:00) 19 20 (15:30) 13.33 (15:20) 0 0 0 0 0
05-11-2020 16 (23:50) 8.1 (00:00) 12.1 11.11 (15:00) 7.5 (15:00) 0 0 0 0 0

Gráficas

Temp. máximas Temp. mínimas Temp. medias Precipitaciones Rachas de viento máximas Velocidades máximas media en intervalos de 10 minutos

Datos horarios

Fecha y hora oficial Temperatura (ºC) Velocidad del viento (km/h) Dirección del viento Racha (km/h) Dirección de racha Precipitación (mm) Presión (hPa) Tendencia (hPa) Humedad (%)
2020-12-04 23:00:00 5.3 6 Sudoeste 21 Sudoeste 0 -- -- 86
2020-12-04 22:00:00 5 12 Sudoeste 33 Sudoeste 1.8 -- -- 90
2020-12-04 21:00:00 5.7 15 Oeste 34 Oeste 1.8 -- -- 86
2020-12-04 20:00:00 5.2 8 Sur 24 Sudoeste 0 -- -- 90
2020-12-04 19:00:00 5.2 13 Sudoeste 29 Sudoeste 1.8 -- -- 91
2020-12-04 18:00:00 5.5 10 Sudoeste 28 Noroeste 3.4 -- -- 92
2020-12-04 17:00:00 7.4 9 Oeste 19 Oeste 0 -- -- 78
2020-12-04 16:00:00 6.7 8 Sur 22 Sur 0 -- -- 84
2020-12-04 15:00:00 4.5 9 Sudoeste 30 Sudoeste 4.8 -- -- 90
2020-12-04 14:00:00 5.5 11 Oeste 41 Oeste 1.8 -- -- 88
2020-12-04 13:00:00 7.8 15 Sudoeste 34 Sudoeste 0 -- -- 74
2020-12-04 12:00:00 6.5 15 Sudoeste 39 Sudoeste 1 -- -- 83
2020-12-04 11:00:00 7.9 17 Oeste 39 Oeste 0.2 -- -- 70
2020-12-04 10:00:00 7.7 6 Sudoeste 28 Oeste 0 -- -- 64
2020-12-04 09:00:00 6.8 9 Sudoeste 28 Oeste 0 -- -- 69
2020-12-04 08:00:00 5.9 4 Oeste 37 Oeste 0.2 -- -- 77
2020-12-04 07:00:00 5.5 18 Oeste 45 Oeste 3.2 -- -- 86
2020-12-04 06:00:00 7.1 13 Oeste 35 Oeste 0 -- -- 71
2020-12-04 05:00:00 6.5 10 Sudoeste 40 Oeste 0 -- -- 80
2020-12-04 04:00:00 6.9 19 Sudoeste 45 Oeste 0.6 -- -- 80
2020-12-04 03:00:00 6.8 13 Sudoeste 49 Oeste 1.2 -- -- 86
2020-12-04 02:00:00 6.8 15 Oeste 59 Oeste 3.2 -- -- 90
2020-12-04 01:00:00 8 11 Sudoeste 42 Oeste 1.4 -- -- 88
2020-12-04 00:00:00 8.4 21 Oeste 47 Oeste 5.2 -- -- 89
2020-12-03 23:00:00 9.2 13 Oeste 48 Sudoeste 7.8 -- -- 90
2020-12-03 22:00:00 9.8 12 Sudoeste 43 Oeste 5 -- -- 88
2020-12-03 21:00:00 14.2 19 Sudoeste 36 Sudoeste 0 -- -- 50
2020-12-03 20:00:00 10.1 2 Sudoeste 12 Sur 0 -- -- 72
2020-12-03 19:00:00 10.2 6 Sur 12 Sur 0 -- -- 71
2020-12-03 18:00:00 11.2 0 Calma 13 Sudeste 0 -- -- 65
2020-12-03 17:00:00 12.7 6 Sur 17 Sudoeste 0 -- -- 54
2020-12-03 16:00:00 13.9 9 Sudoeste 21 Sur 0 -- -- 47
2020-12-03 15:00:00 14.7 8 Sudoeste 18 Sudoeste 0 -- -- 53
2020-12-03 14:00:00 14.6 8 Sudoeste 21 Sur 0 -- -- 56
2020-12-03 13:00:00 14 7 Sudoeste 18 Sudoeste 0 -- -- 61
2020-12-03 12:00:00 11.1 8 Sudeste 14 Sudeste 0 -- -- 82
2020-12-03 11:00:00 9.3 10 Sudeste 18 Sur 0 -- -- 87
2020-12-03 10:00:00 6.9 5 Sur 15 Sur 0 -- -- 94
2020-12-03 09:00:00 6.4 7 Sudeste 15 Sudeste 0 -- -- 94
2020-12-03 08:00:00 6.8 6 Sudeste 12 Sudeste 0 -- -- 92
2020-12-03 07:00:00 8.1 6 Sur 17 Sudeste 0 -- -- 89
2020-12-03 06:00:00 9.9 5 Sudeste 18 Sudoeste 0 -- -- 81
2020-12-03 05:00:00 9.4 5 Sur 13 Sudeste 0 -- -- 89
2020-12-03 04:00:00 8.8 9 Sudeste 15 Sudeste 0 -- -- 93
2020-12-03 03:00:00 8.7 7 Sur 14 Sudeste 0 -- -- 93
2020-12-03 02:00:00 8.6 6 Sudeste 14 Sudeste 0 -- -- 93
2020-12-03 01:00:00 8 4 Sudeste 10 Sudeste 0 -- -- 93
2020-12-03 00:00:00 7.4 5 Sur 10 Sur 0 -- -- 93
2020-12-02 23:00:00 6.6 3 Sudeste 8 Sur 0 -- -- 94
2020-12-02 22:00:00 6.3 6 Sur 10 Sur 0 -- -- 92
2020-12-02 21:00:00 6.6 6 Sudeste 10 Sudeste 0 -- -- 91
2020-12-02 20:00:00 7.6 6 Sur 9 Sudeste 0 -- -- 86
2020-12-02 19:00:00 7.9 6 Sudeste 9 Sudoeste 0 -- -- 81
2020-12-02 18:00:00 10.4 5 Sudoeste 13 Oeste 0 -- -- 68
2020-12-02 17:00:00 12 5 Norte 20 Noroeste 0 -- -- 65
2020-12-02 16:00:00 12.5 11 Noroeste 23 Noroeste 0 -- -- 60
2020-12-02 15:00:00 13.2 9 Noroeste 21 Noroeste 0 -- -- 56
2020-12-02 14:00:00 12.1 6 Norte 21 Noroeste 0 -- -- 67
2020-12-02 13:00:00 12 10 Noroeste 20 Noroeste 0 -- -- 67
2020-12-02 12:00:00 13.4 9 Noroeste 20 Norte 0 -- -- 61
2020-12-02 11:00:00 12.7 10 Norte 21 Norte 0 -- -- 64
2020-12-02 10:00:00 9.2 3 Noroeste 8 Este 0 -- -- 90
2020-12-02 09:00:00 8.4 5 Oeste 9 Oeste 0.2 -- -- 93
2020-12-02 08:00:00 7.8 5 Sur 8 Sudeste 0 -- -- 95
2020-12-02 07:00:00 7.5 3 Sudeste 10 Sudeste 0 -- -- 94
2020-12-02 06:00:00 7.6 3 Sudeste 5 Sudeste 0 -- -- 90
2020-12-02 05:00:00 9.4 3 Oeste 19 Nordeste 0 -- -- 81
2020-12-02 04:00:00 11.3 12 Nordeste 26 Nordeste 0 -- -- 72
2020-12-02 03:00:00 11.6 10 Nordeste 26 Nordeste 0 -- -- 76
2020-12-02 02:00:00 11.9 9 Norte 23 Nordeste 0 -- -- 74
2020-12-02 01:00:00 12.1 7 Norte 22 Norte 0 -- -- 77
2020-12-02 00:00:00 11 2 Oeste 8 Oeste 0.4 -- -- 98
2020-12-01 23:00:00 11.1 4 Noroeste 8 Noroeste 1.2 -- -- 98
2020-12-01 22:00:00 11 3 Noroeste 24 Oeste 3 -- -- 96
2020-12-01 21:00:00 11.4 15 Noroeste 26 Noroeste 0.6 -- -- 92
2020-12-01 20:00:00 12.9 7 Oeste 21 Oeste 0 -- -- 85
2020-12-01 19:00:00 12.9 9 Oeste 20 Sudoeste 0 -- -- 86
2020-12-01 18:00:00 13 7 Oeste 18 Oeste 0 -- -- 84
2020-12-01 17:00:00 13.1 6 Oeste 18 Sudoeste 0 -- -- 84
2020-12-01 16:00:00 13.5 6 Oeste 19 Oeste 0 -- -- 82
2020-12-01 15:00:00 13.5 7 Oeste 15 Oeste 0 -- -- 80
2020-12-01 14:00:00 13.3 4 Sur 14 Oeste 0 -- -- 81
2020-12-01 13:00:00 11.4 9 Sudeste 14 Sudeste 0 -- -- 86
2020-12-01 12:00:00 9.3 9 Sudeste 13 Sudeste 0 -- -- 94
2020-12-01 11:00:00 7.6 7 Sudeste 15 Sudeste 0 -- -- 97
2020-12-01 10:00:00 5.8 9 Sudeste 21 Sudeste 0 -- -- 99
2020-12-01 09:00:00 4.8 9 Sudeste 17 Sudeste 0 -- -- 100
2020-12-01 08:00:00 5.2 10 Sudeste 16 Sudeste 0 -- -- 100
2020-12-01 07:00:00 5.3 8 Sur 15 Sur 0 -- -- 99
2020-12-01 06:00:00 5.8 7 Sur 16 Sudeste 0 -- -- 99
2020-12-01 05:00:00 6.3 7 Sudeste 15 Sudeste 0 -- -- 100
2020-12-01 04:00:00 7.3 9 Sur 18 Sudeste 0 -- -- 100
2020-12-01 03:00:00 7.6 7 Sur 14 Sudeste 0 -- -- 99
2020-12-01 02:00:00 7.6 7 Sur 11 Sur 0 -- -- 99
2020-12-01 01:00:00 7.2 7 Sur 9 Sur 0 -- -- 99
2020-12-01 00:00:00 7.2 4 Noroeste 6 Sudeste 0 -- -- 96
2020-11-30 23:00:00 8.7 0 Calma 5 Sudeste 0 -- -- 96
2020-11-30 22:00:00 10.6 3 Oeste 6 Noroeste 0 -- -- 96
2020-11-30 21:00:00 10.5 5 Noroeste 9 Noroeste 0 -- -- 95
2020-11-30 20:00:00 12.2 0 Calma 9 Noroeste 0 -- -- 89
2020-11-30 19:00:00 12.7 3 Oeste 8 Noroeste 0 -- -- 90
2020-11-30 18:00:00 12.9 2 Oeste 14 Nordeste 0 -- -- 89
2020-11-30 17:00:00 13.3 5 Nordeste 15 Norte 0 -- -- 88
2020-11-30 16:00:00 13.5 5 Nordeste 10 Nordeste 0 -- -- 89
2020-11-30 15:00:00 13.5 4 Noroeste 6 Noroeste 0 -- -- 92
2020-11-30 14:00:00 12.6 2 Sudeste 5 Noroeste 0 -- -- 94
2020-11-30 13:00:00 11.7 5 Noroeste 6 Sur 0 -- -- 92
2020-11-30 12:00:00 11.2 4 Sur 8 Sur 0 -- -- 91
2020-11-30 11:00:00 9.7 4 Sur 11 Sur 0 -- -- 95
2020-11-30 10:00:00 8 7 Sur 18 Sudeste 0 -- -- 98
2020-11-30 09:00:00 7.1 9 Sudeste 17 Sudeste 0 -- -- 100
2020-11-30 08:00:00 6.3 9 Sudeste 14 Sur 0 -- -- 100
2020-11-30 07:00:00 6.1 6 Sur 13 Sudeste 0 -- -- 99
2020-11-30 06:00:00 6.3 2 Sur 12 Sudeste 0 -- -- 99
2020-11-30 05:00:00 7 7 Sur 15 Sur 0 -- -- 98
2020-11-30 04:00:00 6.7 2 Sur 18 Sudeste 0 -- -- 98
2020-11-30 03:00:00 6.8 6 Sur 10 Sur 0 -- -- 99
2020-11-30 02:00:00 7.5 7 Sur 14 Sur 0 -- -- 99
2020-11-30 01:00:00 7.5 5 Sur 10 Sur 0 -- -- 98
2020-11-30 00:00:00 8.7 6 Sur 11 Sur 0 -- -- 98
2020-11-29 23:00:00 8.4 5 Sudeste 9 Sudeste 0 -- -- 98
2020-11-29 22:00:00 9 4 Sudeste 10 Sur 0 -- -- 97
2020-11-29 21:00:00 9.7 5 Sur 8 Sudeste 0 -- -- 97
2020-11-29 20:00:00 10.5 6 Sudeste 9 Sudeste 0 -- -- 95
2020-11-29 19:00:00 11.9 4 Sudeste 8 Sudeste 0 -- -- 93
2020-11-29 18:00:00 14.2 5 Noroeste 12 Noroeste 0 -- -- 90
2020-11-29 17:00:00 16 4 Noroeste 14 Norte 0 -- -- 81
2020-11-29 16:00:00 17.6 3 Noroeste 12 Noroeste 0 -- -- 71
2020-11-29 15:00:00 18 5 Norte 12 Nordeste 0 -- -- 67
2020-11-29 14:00:00 17.4 7 Nordeste 13 Nordeste 0 -- -- 66
2020-11-29 13:00:00 17.4 5 Norte 10 Norte 0 -- -- 65
2020-11-29 12:00:00 15.9 0 Calma 7 Sur 0 -- -- 69
2020-11-29 11:00:00 11.3 4 Sur 6 Sur 0 -- -- 88
2020-11-29 10:00:00 9.6 2 Noroeste 9 Sur 0 -- -- 92
2020-11-29 09:00:00 6.9 2 Sudeste 6 Sudeste -- -- -- 92
2020-11-29 08:00:00 6.5 2 Norte 6 Oeste 0 -- -- 91
2020-11-29 07:00:00 8.1 3 Sudoeste 20 Sudeste 0 -- -- 86
2020-11-29 06:00:00 11.8 10 Sur 17 Sur 0 -- -- 74
2020-11-29 05:00:00 11.8 10 Sur 23 Sudeste 0 -- -- 75
2020-11-29 04:00:00 11.1 10 Sur 24 Sudeste 0 -- -- 80
2020-11-29 03:00:00 9.6 4 Sur 15 Sudeste 0 -- -- 85
2020-11-29 02:00:00 11.3 10 Sudeste 22 Sudeste 0 -- -- 79
2020-11-29 01:00:00 11.9 12 Sudeste 30 Sudeste 0 -- -- 78
2020-11-29 00:00:00 11.8 12 Sudeste 18 Sudeste 0 -- -- 79
2020-11-28 23:00:00 9.6 2 Este 10 Sudeste 0 -- -- 88
2020-11-28 22:00:00 8.9 0 Calma 8 Sudoeste 0 -- -- 92
2020-11-28 21:00:00 9.5 0 Calma 9 Sudeste 0 -- -- 90
2020-11-28 20:00:00 10.9 4 Sudeste 11 Sudeste 0 -- -- 85
2020-11-28 19:00:00 11.1 4 Sudeste 8 Sudeste 0 -- -- 91
2020-11-28 18:00:00 13.7 3 Sudoeste 15 Nordeste 0 -- -- 84
2020-11-28 17:00:00 15.8 12 Nordeste 20 Nordeste 0 -- -- 80
2020-11-28 16:00:00 17.8 4 Oeste 13 Norte 0 -- -- 71
2020-11-28 15:00:00 18.6 2 Norte 11 Noroeste 0 -- -- 64
2020-11-28 14:00:00 18.8 5 Norte 12 Sur 0 -- -- 63
2020-11-28 13:00:00 18.2 8 Este 18 Sudeste 0 -- -- 59
2020-11-28 12:00:00 16.2 10 Sur 20 Sudoeste 0 -- -- 62
2020-11-28 11:00:00 12.3 3 Este 19 Sudeste 0 -- -- 90
2020-11-28 10:00:00 8 3 Sudeste 9 Sur 0 -- -- 100
2020-11-28 09:00:00 5 3 Sudeste 8 Sur 0 -- -- 100
2020-11-28 08:00:00 5.4 2 Sudeste 10 Sudeste 0 -- -- 99
2020-11-28 07:00:00 6 3 Sur 8 Sudeste 0 -- -- 100
2020-11-28 06:00:00 6 0 Calma 8 Sur 0 -- -- 100
2020-11-28 05:00:00 5.9 3 Sudeste 7 Sudeste 0 -- -- 99
2020-11-28 04:00:00 6.3 2 Sudoeste 8 Sudeste 0 -- -- 99
2020-11-28 03:00:00 5.9 4 Sudeste 8 Sudeste 0 -- -- 99
2020-11-28 02:00:00 5.9 3 Sudeste 6 Sudeste 0 -- -- 99
2020-11-28 01:00:00 6.5 0 Calma 4 Sudeste 0 -- -- 97
2020-11-28 00:00:00 7.1 0 Calma 8 Sur 0 -- -- 97
2020-11-27 23:00:00 7.5 2 Sudeste 5 Sudeste 0 -- -- 96
2020-11-27 22:00:00 8.1 0 Calma 4 Oeste 0 -- -- 94
2020-11-27 21:00:00 10.4 3 Noroeste 9 Sur 0 -- -- 90
2020-11-27 20:00:00 11.7 3 Sur 7 Este 0 -- -- 88
2020-11-27 19:00:00 12.1 2 Sur 10 Oeste 0 -- -- 87
2020-11-27 18:00:00 14 7 Noroeste 11 Noroeste 0 -- -- 82
2020-11-27 17:00:00 14.7 4 Oeste 8 Oeste 0 -- -- 82
2020-11-27 16:00:00 15.8 3 Oeste 13 Oeste 0 -- -- 74
2020-11-27 15:00:00 16 4 Nordeste 12 Sudoeste 0 -- -- 71
2020-11-27 14:00:00 16.3 5 Sur 10 Sudoeste 0 -- -- 70
2020-11-27 13:00:00 15.5 4 Noroeste 8 Noroeste 0 -- -- 81
2020-11-27 12:00:00 14.4 5 Oeste 9 Oeste 0 -- -- 86
2020-11-27 11:00:00 12.5 3 Noroeste 11 Sudeste 0 -- -- 93
2020-11-27 10:00:00 10.9 2 Sur 8 Sudeste 0 -- -- 95
2020-11-27 09:00:00 10.2 3 Sudeste 8 Sudeste 0 -- -- 95
2020-11-27 08:00:00 10.5 5 Sudeste 8 Sudeste 0 -- -- 94
2020-11-27 07:00:00 10.2 0 Calma 7 Oeste 0 -- -- 92
2020-11-27 06:00:00 10.6 2 Noroeste 9 Sudeste 0 -- -- 93
2020-11-27 05:00:00 10.8 4 Sudeste 10 Sudeste 0 -- -- 93
2020-11-27 04:00:00 9.5 3 Noroeste 5 Noroeste 0 -- -- 92
2020-11-27 03:00:00 10.9 0 Calma 10 Sur 0 -- -- 88
2020-11-27 02:00:00 11.2 6 Sur 10 Sudeste 0 -- -- 93
2020-11-27 01:00:00 10.7 3 Nordeste 10 Sudeste 0 -- -- 91
2020-11-27 00:00:00 11.1 5 Sudeste 12 Sudeste 0 -- -- 90
2020-11-26 23:00:00 11.4 3 Sur 12 Sudeste 0 -- -- 90
2020-11-26 22:00:00 11.2 4 Sudeste 8 Sur 0 -- -- 91
2020-11-26 21:00:00 11.2 3 Sudeste 7 Noroeste 0 -- -- 87
2020-11-26 20:00:00 12.7 3 Oeste 6 Este 0 -- -- 80
2020-11-26 19:00:00 14.2 4 Este 12 Este 0 -- -- 75
2020-11-26 18:00:00 15.2 5 Sudeste 15 Norte 0 -- -- 72
2020-11-26 17:00:00 16.1 7 Nordeste 12 Nordeste 0 -- -- 69
2020-11-26 16:00:00 16.8 6 Este 16 Sudeste 0 -- -- 67
2020-11-26 15:00:00 17.5 10 Sudeste 25 Sudeste 0 -- -- 61
2020-11-26 14:00:00 17.3 12 Sudeste 23 Sudeste 0 -- -- 63
2020-11-26 13:00:00 18.1 6 Este 12 Sudoeste 0 -- -- 58
2020-11-26 12:00:00 17.5 6 Sur 24 Sudeste 0 -- -- 57
2020-11-26 11:00:00 16.6 13 Sur 27 Sudeste 0 -- -- 58
2020-11-26 10:00:00 14.8 4 Nordeste 15 Sudeste 0 -- -- 71
2020-11-26 09:00:00 13.8 7 Este 15 Este 0 -- -- 69
2020-11-26 08:00:00 14.2 3 Este 15 Este 0 -- -- 65
2020-11-26 07:00:00 14.7 5 Sur 15 Sudoeste 0 -- -- 61
2020-11-26 06:00:00 14.2 7 Este 22 Sudeste 0 -- -- 64
2020-11-26 05:00:00 14.2 8 Este 20 Nordeste 0 -- -- 64
2020-11-26 04:00:00 13.7 8 Este 18 Sudeste 0 -- -- 66
2020-11-26 03:00:00 13.1 6 Este 24 Sudoeste 0 -- -- 66
2020-11-26 02:00:00 14.4 12 Sudeste 24 Sudeste 0 -- -- 61
2020-11-26 01:00:00 12.1 4 Este 11 Este 0 -- -- 72
2020-11-26 00:00:00 10.8 3 Sur 12 Sudeste 0 -- -- 75
2020-11-25 23:00:00 10 4 Este 9 Este 0 -- -- 77
2020-11-25 22:00:00 11.2 2 Sur 12 Este 0 -- -- 72
2020-11-25 21:00:00 11.2 6 Sudeste 15 Sudeste 0 -- -- 75
2020-11-25 20:00:00 11.6 4 Sudeste 19 Sur 0 -- -- 71
2020-11-25 19:00:00 13.3 10 Sudeste 19 Sur 0 -- -- 64
2020-11-25 18:00:00 14.3 11 Sur 22 Sudeste 0 -- -- 63
2020-11-25 17:00:00 15.1 4 Oeste 10 Noroeste 0 -- -- 72
2020-11-25 16:00:00 16.8 4 Norte 12 Norte 0 -- -- 66
2020-11-25 15:00:00 17.2 4 Norte 10 Nordeste 0 -- -- 60
2020-11-25 14:00:00 17.6 6 Noroeste 11 Norte 0 -- -- 60
2020-11-25 13:00:00 17.8 4 Nordeste 8 Nordeste 0 -- -- 54
2020-11-25 12:00:00 17 3 Este 7 Sudeste 0 -- -- 59
2020-11-25 11:00:00 13.8 5 Noroeste 7 Noroeste 0 -- -- 79
2020-11-25 10:00:00 10.3 3 Noroeste 7 Oeste 0 -- -- 86
2020-11-25 09:00:00 7.3 0 Calma 7 Noroeste 0 -- -- 88
2020-11-25 08:00:00 10.6 6 Sudeste 23 Sudeste 0 -- -- 73
2020-11-25 07:00:00 13 14 Sudeste 27 Sudeste 0 -- -- 68
2020-11-25 06:00:00 10.3 4 Sudoeste 12 Sur 0 -- -- 78
2020-11-25 05:00:00 13.5 6 Sudoeste 18 Sur 0 -- -- 67
2020-11-25 04:00:00 5.8 3 Sudoeste 7 Sudeste 0 -- -- 96
2020-11-25 03:00:00 6.9 0 Calma 7 Sudeste 0 -- -- 97
2020-11-25 02:00:00 6 5 Sudoeste 13 Sur 0 -- -- 98
2020-11-25 01:00:00 6.4 3 Sudoeste 11 Noroeste 0 -- -- 98
2020-11-25 00:00:00 6.5 3 Sudoeste 9 Noroeste 0 -- -- 98
2020-11-24 23:00:00 7.5 4 Oeste 10 Noroeste 0 -- -- 96
2020-11-24 22:00:00 8.2 4 Sur 8 Sudeste 0 -- -- 95
2020-11-24 21:00:00 8.9 4 Sur 11 Sur 0 -- -- 95
2020-11-24 20:00:00 9 6 Sur 12 Sudeste 0 -- -- 94
2020-11-24 19:00:00 10 0 Calma 7 Sudeste 0 -- -- 90
2020-11-24 18:00:00 12 4 Oeste 8 Sur 0 -- -- 82
2020-11-24 17:00:00 15.2 6 Noroeste 13 Nordeste 0 -- -- 69
2020-11-24 16:00:00 16.8 5 Nordeste 12 Nordeste 0 -- -- 68
2020-11-24 15:00:00 17.1 5 Nordeste 10 Noroeste 0 -- -- 62
2020-11-24 14:00:00 17.1 6 Noroeste 16 Oeste 0 -- -- 59
2020-11-24 13:00:00 17.1 8 Oeste 18 Noroeste 0 -- -- 60
2020-11-24 12:00:00 13.3 4 Este 9 Sudeste 0 -- -- 73
2020-11-24 11:00:00 9.5 3 Sudeste 15 Sudeste 0 -- -- 86
2020-11-24 10:00:00 6.8 7 Sudeste 15 Sudeste 0 -- -- 96
2020-11-24 09:00:00 4.4 2 Sudeste 9 Sudeste 0 -- -- 97
2020-11-24 08:00:00 4.5 5 Sudeste 9 Sur 0 -- -- 98
2020-11-24 07:00:00 4.6 3 Sudoeste 10 Sur 0 -- -- 98
2020-11-24 06:00:00 3.9 0 Calma 9 Sudeste 0 -- -- 97
2020-11-24 05:00:00 4.1 0 Calma 8 Sur 0 -- -- 96
2020-11-24 04:00:00 4.8 3 Sudeste 8 Sur 0 -- -- 94
2020-11-24 03:00:00 6 6 Sudeste 12 Sudeste 0 -- -- 94
2020-11-24 02:00:00 5.5 2 Sur 15 Sudeste 0 -- -- 92
2020-11-24 01:00:00 6.5 5 Sudeste 12 Sudeste 0 -- -- 89
2020-11-24 00:00:00 6.5 6 Sudeste 15 Sudeste 0 -- -- 91
2020-11-23 23:00:00 7.1 8 Sudeste 16 Sudeste 0 -- -- 93
2020-11-23 22:00:00 6.6 6 Sur 10 Sur 0 -- -- 97
2020-11-23 21:00:00 6.9 5 Sur 9 Sur 0 -- -- 96
2020-11-23 20:00:00 8 5 Sur 8 Sur 0 -- -- 94
2020-11-23 19:00:00 9.6 0 Calma 7 Sur 0 -- -- 92
2020-11-23 18:00:00 11.1 4 Sudeste 8 Nordeste 0 -- -- 87
2020-11-23 17:00:00 14 7 Nordeste 17 Nordeste 0 -- -- 76
2020-11-23 16:00:00 15.3 6 Nordeste 18 Nordeste 0 -- -- 66
2020-11-23 15:00:00 15.7 6 Nordeste 14 Nordeste 0 -- -- 59
2020-11-23 14:00:00 15.6 0 Calma 10 Nordeste 0 -- -- 60
2020-11-23 13:00:00 14.2 4 Norte 9 Norte 0 -- -- 74
2020-11-23 12:00:00 11.9 5 Sudeste 18 Sudeste 0 -- -- 79
2020-11-23 11:00:00 9.2 9 Sudeste 19 Sudeste 0 -- -- 89
2020-11-23 10:00:00 6.4 8 Sudeste 17 Sudeste 0 -- -- 100
2020-11-23 09:00:00 4.1 8 Sur 18 Sudeste 0 -- -- 100
2020-11-23 08:00:00 4.2 9 Sur 21 Sudeste 0 -- -- 100
2020-11-23 07:00:00 4.6 9 Sur 22 Sudeste 0 -- -- 99
2020-11-23 06:00:00 4.6 9 Sur 14 Sudeste 0 -- -- 100
2020-11-23 05:00:00 5 9 Sur 20 Sudeste 0 -- -- 99
2020-11-23 04:00:00 5.5 10 Sudeste 22 Sudeste 0 -- -- 100
2020-11-23 03:00:00 5.7 9 Sudeste 18 Sur 0 -- -- 100
2020-11-23 02:00:00 5.6 7 Sudeste 18 Sudeste 0 -- -- 99
2020-11-23 01:00:00 6.8 12 Sudeste 18 Sudeste 0 -- -- 100
2020-11-23 00:00:00 6.6 6 Sur 12 Sur 0 -- -- 100
2020-11-22 23:00:00 6.7 6 Sur 10 Sur 0 -- -- 99
2020-11-22 22:00:00 7 6 Sur 10 Sudeste 0 -- -- 99
2020-11-22 21:00:00 7.8 9 Sur 12 Sur 0 -- -- 98
2020-11-22 20:00:00 8.3 4 Sudeste 9 Sudeste 0 -- -- 96
2020-11-22 19:00:00 9.2 5 Sudeste 7 Sudeste 0 -- -- 94
2020-11-22 18:00:00 11.3 2 Sudoeste 6 Noroeste 0 -- -- 90
2020-11-22 17:00:00 14.4 4 Noroeste 9 Norte 0 -- -- 80
2020-11-22 16:00:00 15.9 6 Noroeste 12 Noroeste 0 -- -- 73
2020-11-22 15:00:00 16.1 6 Noroeste 12 Noroeste 0 -- -- 69
2020-11-22 14:00:00 15.7 5 Noroeste 11 Noroeste 0 -- -- 69
2020-11-22 13:00:00 14.6 6 Sudeste 11 Sudeste 0 -- -- 69
2020-11-22 12:00:00 12 8 Sudeste 15 Sudeste 0 -- -- 74
2020-11-22 11:00:00 8.7 11 Sudeste 19 Sudeste 0 -- -- 82
2020-11-22 10:00:00 5.8 9 Sudeste 18 Sur 0 -- -- 96
2020-11-22 09:00:00 3.7 10 Sur 17 Sur 0 -- -- 99
2020-11-22 08:00:00 3.5 8 Sudeste 14 Sudeste 0 -- -- 100
2020-11-22 07:00:00 2.7 6 Sur 12 Sur 0 -- -- 100
2020-11-22 06:00:00 2.8 5 Sur 13 Sur 0 -- -- 99
2020-11-22 05:00:00 2.8 5 Sur 10 Sur 0 -- -- 99
2020-11-22 04:00:00 3 3 Sudoeste 13 Sudeste 0 -- -- 98
2020-11-22 03:00:00 3.1 8 Sur 13 Sudeste 0 -- -- 97
2020-11-22 02:00:00 3.5 8 Sudeste 16 Sudeste 0 -- -- 97
2020-11-22 01:00:00 4.6 7 Sudeste 19 Sudeste 0 -- -- 97
2020-11-22 00:00:00 4.9 8 Sur 15 Sur 0 -- -- 97
2020-11-21 23:00:00 5 4 Sudeste 10 Sur 0 -- -- 97
2020-11-21 22:00:00 5.5 5 Sur 9 Sur 0 -- -- 96
2020-11-21 21:00:00 6.1 5 Sudeste 10 Sudeste 0 -- -- 94
2020-11-21 20:00:00 6.8 3 Sur 9 Sudeste 0 -- -- 92
2020-11-21 19:00:00 8.3 0 Calma 10 Nordeste 0 -- -- 83
2020-11-21 18:00:00 10.6 6 Sudeste 27 Nordeste 0 -- -- 75
2020-11-21 17:00:00 12.3 17 Nordeste 31 Nordeste 0 -- -- 69
2020-11-21 16:00:00 12.9 21 Nordeste 34 Nordeste 0 -- -- 67
2020-11-21 15:00:00 13 21 Nordeste 31 Norte 0 -- -- 64
2020-11-21 14:00:00 12.8 21 Nordeste 29 Nordeste 0 -- -- 61
2020-11-21 13:00:00 12.6 18 Nordeste 27 Nordeste 0 -- -- 61
2020-11-21 12:00:00 12.6 14 Nordeste 22 Nordeste 0 -- -- 65
2020-11-21 11:00:00 10.6 5 Este 9 Este 0 -- -- 78
2020-11-21 10:00:00 7 6 Sur 12 Sudeste 0 -- -- 91
2020-11-21 09:00:00 4.9 8 Sur 17 Sudeste 0 -- -- 96
2020-11-21 08:00:00 4.6 12 Sudeste 20 Sudeste 0 -- -- 97
2020-11-21 07:00:00 4.6 9 Sudeste 15 Sudeste 0 -- -- 98
2020-11-21 06:00:00 4.3 4 Sur 8 Sudeste 0 -- -- 97
2020-11-21 05:00:00 5.4 4 Sur 12 Sudeste 0 -- -- 96
2020-11-21 04:00:00 5.7 8 Sudeste 13 Sudeste 0 -- -- 96
2020-11-21 03:00:00 6.4 8 Sur 13 Sudeste 0 -- -- 95
2020-11-21 02:00:00 6.6 8 Sur 15 Sudeste 0 -- -- 95
2020-11-21 01:00:00 7 9 Sur 14 Sur 0 -- -- 95
2020-11-21 00:00:00 7.4 9 Sur 13 Sur 0 -- -- 94
2020-11-20 23:00:00 7.8 6 Sur 11 Sur 0 -- -- 93
2020-11-20 22:00:00 8.7 4 Sudeste 13 Este 0 -- -- 91
2020-11-20 21:00:00 8 2 Noroeste 7 Este 0 -- -- 93
2020-11-20 20:00:00 8.7 0 Calma 6 Nordeste 0 -- -- 90
2020-11-20 19:00:00 9.8 0 Calma 9 Nordeste 0 -- -- 85
2020-11-20 18:00:00 11.6 3 Oeste 10 Este 0 -- -- 82
2020-11-20 17:00:00 13.3 5 Este 19 Nordeste 0 -- -- 76
2020-11-20 16:00:00 14.3 10 Nordeste 26 Nordeste 0 -- -- 73
2020-11-20 15:00:00 15.1 10 Nordeste 17 Nordeste 0 -- -- 71
2020-11-20 14:00:00 15.4 3 Este 12 Nordeste 0 -- -- 66
2020-11-20 13:00:00 14.7 4 Este 7 Este 0 -- -- 74
2020-11-20 12:00:00 13.6 5 Sudeste 14 Sudeste 0 -- -- 83
2020-11-20 11:00:00 10.9 9 Sudeste 14 Sudeste 0 -- -- 96
2020-11-20 10:00:00 10.1 6 Sur 10 Sur 0 -- -- 98
2020-11-20 09:00:00 9.3 6 Sur 11 Sur 0 -- -- 98
2020-11-20 08:00:00 9.2 6 Sur 13 Sudeste 0 -- -- 99
2020-11-20 07:00:00 8.9 4 Sur 9 Sur 0 -- -- 98
2020-11-20 06:00:00 9.6 4 Sur 13 Sudeste 0 -- -- 97
2020-11-20 05:00:00 10 5 Sudeste 9 Sur 0 -- -- 97
2020-11-20 04:00:00 10.5 5 Sur 10 Sudeste 0 -- -- 96
2020-11-20 03:00:00 10.6 5 Sur 14 Sudeste 0 -- -- 96
2020-11-20 02:00:00 10.6 3 Sur 12 Sur 0 -- -- 96
2020-11-20 01:00:00 10.7 6 Sur 13 Sudeste 0 -- -- 96
2020-11-20 00:00:00 10.7 9 Sudeste 14 Sudeste 0 -- -- 96
2020-11-19 23:00:00 10.9 6 Sur 10 Sudeste 0 -- -- 97
2020-11-19 22:00:00 10.7 5 Sur 9 Sudeste 0 -- -- 97
2020-11-19 21:00:00 10.7 5 Sur 15 Sur 0 -- -- 96
2020-11-19 20:00:00 11.2 9 Sur 12 Sur 0 -- -- 96
2020-11-19 19:00:00 11.5 5 Sur 13 Sur 0 -- -- 94
2020-11-19 18:00:00 11.7 8 Sur 12 Sur 0 -- -- 92
2020-11-19 17:00:00 12.6 6 Norte 19 Norte 0 -- -- 86
2020-11-19 16:00:00 13.6 7 Norte 17 Norte 0 -- -- 80
2020-11-19 15:00:00 13.4 4 Noroeste 19 Norte 0 -- -- 88
2020-11-19 14:00:00 13.5 4 Noroeste 13 Nordeste 0 -- -- 88
2020-11-19 13:00:00 13.2 3 Sudeste 14 Norte 0.2 -- -- 95
2020-11-19 12:00:00 12.8 7 Norte 13 Norte 0.4 -- -- 97
2020-11-19 11:00:00 12.7 7 Noroeste 13 Noroeste 0.6 -- -- 98
2020-11-19 10:00:00 13.1 2 Sudoeste 7 Noroeste 0.6 -- -- 98
2020-11-19 09:00:00 13.2 7 Noroeste 18 Noroeste 1 -- -- 98
2020-11-19 08:00:00 13.8 8 Noroeste 19 Noroeste 0.8 -- -- 99
2020-11-19 07:00:00 14.4 6 Noroeste 17 Noroeste 0.6 -- -- 99
2020-11-19 06:00:00 13.3 0 Calma 6 Sudeste 0.2 -- -- 99
2020-11-19 05:00:00 12.9 4 Sudeste 8 Este 0.4 -- -- 98
2020-11-19 04:00:00 12.4 3 Este 9 Sudeste 0 -- -- 97
2020-11-19 03:00:00 11.9 6 Sudeste 10 Sur 0 -- -- 97
2020-11-19 02:00:00 11.6 3 Oeste 18 Sur 0 -- -- 96
2020-11-19 01:00:00 11.5 9 Sur 19 Sudeste 0 -- -- 97
2020-11-19 00:00:00 11.6 8 Sur 15 Sur 0 -- -- 97
2020-11-18 23:00:00 11.7 10 Sur 16 Sur 0 -- -- 97
2020-11-18 22:00:00 11.4 3 Sudeste 6 Sudeste 0 -- -- 96
2020-11-18 21:00:00 12.3 0 Calma 9 Sur 0 -- -- 94
2020-11-18 20:00:00 12.6 3 Sudeste 8 Sudeste 0 -- -- 92
2020-11-18 19:00:00 14.9 4 Oeste 10 Oeste 0 -- -- 85
2020-11-18 18:00:00 16.8 7 Noroeste 14 Nordeste 0 -- -- 76
2020-11-18 17:00:00 19.3 5 Norte 14 Nordeste 0 -- -- 66
2020-11-18 16:00:00 20.1 5 Norte 10 Norte 0 -- -- 67
2020-11-18 15:00:00 20.3 6 Norte 13 Norte 0 -- -- 62
2020-11-18 14:00:00 21 3 Nordeste 7 Nordeste 0 -- -- 61
2020-11-18 13:00:00 19.1 5 Noroeste 8 Noroeste 0 -- -- 70
2020-11-18 12:00:00 18.4 4 Sudeste 9 Sudeste 0 -- -- 73
2020-11-18 11:00:00 15.5 8 Sur 19 Sur 0 -- -- 80
2020-11-18 10:00:00 13.7 6 Sur 17 Sur 0 -- -- 97
2020-11-18 09:00:00 8.7 2 Sur 11 Noroeste 0 -- -- 100
2020-11-18 08:00:00 7.5 2 Oeste 8 Noroeste 0 -- -- 99
2020-11-18 07:00:00 7.4 3 Sur 6 Sudeste 0 -- -- 99
2020-11-18 06:00:00 7.1 0 Calma 5 Noroeste 0 -- -- 99
2020-11-18 05:00:00 7.5 2 Sur 4 Sudeste 0 -- -- 99
2020-11-18 04:00:00 7.5 0 Calma 8 Noroeste 0 -- -- 99
2020-11-18 03:00:00 7.3 0 Calma 4 Oeste 0 -- -- 99
2020-11-18 02:00:00 7.8 0 Calma 6 Sudeste 0 -- -- 98
2020-11-18 01:00:00 8.4 4 Noroeste 6 Sudeste 0 -- -- 97
2020-11-18 00:00:00 8.7 3 Oeste 5 Oeste 0 -- -- 98
2020-11-17 23:00:00 8.9 3 Sudoeste 10 Sur 0 -- -- 97
2020-11-17 22:00:00 9.5 3 Sudoeste 11 Sur 0 -- -- 96
2020-11-17 21:00:00 10.9 7 Sur 15 Sur 0 -- -- 99
2020-11-17 20:00:00 10.2 3 Sudeste 5 Sudeste 0 -- -- 96
2020-11-17 19:00:00 11.5 4 Sur 7 Sudeste 0 -- -- 94
2020-11-17 18:00:00 13.8 0 Calma 4 Oeste 0 -- -- 88
2020-11-17 17:00:00 17.1 2 Noroeste 6 Nordeste 0 -- -- 76
2020-11-17 16:00:00 18 4 Nordeste 9 Nordeste 0 -- -- 74
2020-11-17 15:00:00 17.9 5 Nordeste 12 Nordeste 0 -- -- 72
2020-11-17 14:00:00 17.4 3 Noroeste 9 Oeste 0 -- -- 68
2020-11-17 13:00:00 16.1 3 Nordeste 9 Nordeste 0 -- -- 71
2020-11-17 12:00:00 14.2 0 Calma 9 Sur 0 -- -- 74
2020-11-17 11:00:00 11.8 5 Sur 10 Sur 0 -- -- 86
2020-11-17 10:00:00 9.4 4 Sudeste 12 Sur 0 -- -- 98
2020-11-17 09:00:00 6.7 3 Sur 11 Sur 0 -- -- 99
2020-11-17 08:00:00 6.6 4 Sudeste 13 Sudeste 0 -- -- 99
2020-11-17 07:00:00 7 5 Sur 10 Sur 0 -- -- 99
2020-11-17 06:00:00 7.3 4 Sur 12 Sudeste 0 -- -- 99
2020-11-17 05:00:00 8 6 Sur 22 Sudeste 0 -- -- 99
2020-11-17 04:00:00 8.3 11 Sudeste 19 Sudeste 0 -- -- 99
2020-11-17 03:00:00 8.2 9 Sur 14 Sur 0 -- -- 99
2020-11-17 02:00:00 8.4 5 Sur 12 Sudeste 0 -- -- 99
2020-11-17 01:00:00 8.9 7 Sudeste 14 Sur 0 -- -- 99
2020-11-17 00:00:00 8.9 4 Sur 10 Sur 0 -- -- 98
2020-11-16 23:00:00 9.4 4 Sudoeste 15 Sudeste 0 -- -- 97
2020-11-16 22:00:00 9.7 7 Sur 11 Sur 0 -- -- 99
2020-11-16 21:00:00 10 6 Sur 10 Sur 0 -- -- 97
2020-11-16 20:00:00 10.3 0 Calma 4 Sur 0 -- -- 95
2020-11-16 19:00:00 11.2 2 Sudeste 5 Sudeste 0 -- -- 93
2020-11-16 18:00:00 13.5 3 Noroeste 9 Nordeste 0 -- -- 81
2020-11-16 17:00:00 15.3 8 Nordeste 15 Nordeste 0 -- -- 72
2020-11-16 16:00:00 16.1 8 Nordeste 14 Nordeste 0 -- -- 68
2020-11-16 15:00:00 16.6 5 Nordeste 11 Nordeste 0 -- -- 66
2020-11-16 14:00:00 16.3 7 Nordeste 12 Nordeste 0 -- -- 68
2020-11-16 13:00:00 15.7 5 Norte 13 Norte 0 -- -- 77
2020-11-16 12:00:00 15.4 6 Sudeste 15 Sudeste 0 -- -- 87
2020-11-16 11:00:00 14.2 7 Sur 12 Sur 0 -- -- 97
2020-11-16 10:00:00 12.9 5 Sur 11 Sur 0 -- -- 98
2020-11-16 09:00:00 12.3 4 Sur 10 Sur 0 -- -- 98
2020-11-16 08:00:00 12.1 5 Sur 8 Sur 0.4 -- -- 98
2020-11-16 07:00:00 12.4 3 Oeste 10 Sur 0 -- -- 96
2020-11-16 06:00:00 12.6 3 Sur 12 Sur 0 -- -- 96
2020-11-16 05:00:00 12.5 6 Sur 16 Sudoeste 0.2 -- -- 95
2020-11-16 04:00:00 13 6 Sudoeste 14 Sudoeste 0 -- -- 92
2020-11-16 03:00:00 12.9 9 Sudoeste 21 Oeste 0 -- -- 93
2020-11-16 02:00:00 13 8 Sudoeste 20 Oeste 0 -- -- 94
2020-11-16 01:00:00 13.1 5 Oeste 18 Oeste 0 -- -- 95
2020-11-16 00:00:00 13 5 Sudoeste 13 Sudoeste 0.2 -- -- 95
2020-11-15 23:00:00 13.4 4 Sudoeste 17 Sudoeste 0 -- -- 93
2020-11-15 22:00:00 13.4 6 Sur 18 Sudoeste 0 -- -- 94
2020-11-15 21:00:00 13.4 7 Sudoeste 19 Oeste 0 -- -- 94
2020-11-15 20:00:00 13.5 8 Oeste 28 Oeste 0.2 -- -- 94
2020-11-15 19:00:00 14 14 Noroeste 22 Noroeste 0.8 -- -- 96
2020-11-15 18:00:00 14.6 5 Sudoeste 13 Sudoeste 0.4 -- -- 96
2020-11-15 17:00:00 14.7 6 Sudoeste 29 Oeste 0.2 -- -- 94
2020-11-15 16:00:00 14.8 13 Oeste 28 Oeste 0.2 -- -- 94
2020-11-15 15:00:00 15.7 9 Noroeste 28 Noroeste 0.4 -- -- 94
2020-11-15 14:00:00 16.8 15 Noroeste 41 Oeste 0 -- -- 88
2020-11-15 13:00:00 20 21 Noroeste 39 Oeste 0 -- -- 64
2020-11-15 12:00:00 23.4 16 Sudoeste 40 Sudoeste 0 -- -- 45
2020-11-15 11:00:00 22.9 12 Sudoeste 25 Sudoeste 0 -- -- 45
2020-11-15 10:00:00 22.2 13 Sur 31 Sur 0 -- -- 45
2020-11-15 09:00:00 22.4 10 Sur 40 Oeste 0 -- -- 46
2020-11-15 08:00:00 21.9 14 Sudoeste 38 Sudoeste 0 -- -- 46
2020-11-15 07:00:00 18.7 5 Sudeste 21 Sudeste 0 -- -- 58
2020-11-15 06:00:00 13.8 4 Sudoeste 10 Noroeste 0 -- -- 80
2020-11-15 05:00:00 15.2 5 Sudoeste 15 Sur 0 -- -- 74
2020-11-15 04:00:00 12.9 2 Oeste 18 Sudeste 0 -- -- 77
2020-11-15 03:00:00 12.1 6 Noroeste 10 Noroeste 0 -- -- 85
2020-11-15 02:00:00 12.8 4 Oeste 8 Sur 0 -- -- 82
2020-11-15 01:00:00 14.7 7 Sur 10 Sur 0 -- -- 78
2020-11-15 00:00:00 12.8 2 Sudoeste 8 Oeste 0 -- -- 89
2020-11-14 23:00:00 12.7 4 Oeste 8 Oeste 0 -- -- 85
2020-11-14 22:00:00 13.4 3 Oeste 21 Este 0 -- -- 72
2020-11-14 21:00:00 14.4 2 Sudoeste 21 Sudeste 0 -- -- 69
2020-11-14 20:00:00 14.2 4 Sur 18 Sudeste 0 -- -- 73
2020-11-14 19:00:00 17.2 8 Sudeste 15 Sudeste 0 -- -- 58
2020-11-14 18:00:00 17.1 4 Sur 9 Este 0 -- -- 63
2020-11-14 17:00:00 20.2 3 Este 6 Este 0 -- -- 56
2020-11-14 16:00:00 21.9 3 Este 15 Sudoeste 0 -- -- 52
2020-11-14 15:00:00 23.5 6 Sur 19 Sudoeste 0 -- -- 36
2020-11-14 14:00:00 22.9 5 Noroeste 9 Noroeste 0 -- -- 43
2020-11-14 13:00:00 21.5 5 Nordeste 10 Nordeste 0 -- -- 52
2020-11-14 12:00:00 19.6 2 Sur 5 Noroeste 0 -- -- 63
2020-11-14 11:00:00 14.9 3 Noroeste 6 Noroeste 0 -- -- 81
2020-11-14 10:00:00 11.1 0 Calma 8 Noroeste 0 -- -- 96
2020-11-14 09:00:00 7.2 0 Calma 5 Oeste 0 -- -- 97
2020-11-14 08:00:00 7.2 2 Sudeste 7 Sudeste 0 -- -- 94
2020-11-14 07:00:00 8.1 3 Sur 11 Sur 0 -- -- 95
2020-11-14 06:00:00 7.7 4 Sudoeste 15 Noroeste 0 -- -- 98
2020-11-14 05:00:00 6.9 3 Sudeste 6 Sudoeste 0 -- -- 99
2020-11-14 04:00:00 7.3 3 Norte 8 Sudeste 0 -- -- 98
2020-11-14 03:00:00 7.2 2 Oeste 5 Sudeste 0 -- -- 98
2020-11-14 02:00:00 7.1 2 Sudoeste 9 Noroeste 0 -- -- 98
2020-11-14 01:00:00 7.5 0 Calma 8 Sur 0 -- -- 97
2020-11-14 00:00:00 8 5 Sudeste 8 Sur 0 -- -- 98
2020-11-13 23:00:00 8.5 0 Calma 9 Noroeste 0 -- -- 96
2020-11-13 22:00:00 9.6 4 Sur 7 Sudeste 0 -- -- 96
2020-11-13 21:00:00 10.6 3 Sur 12 Sur 0 -- -- 95
2020-11-13 20:00:00 11.2 4 Sudeste 8 Sudeste 0 -- -- 94
2020-11-13 19:00:00 12.5 0 Calma 5 Oeste 0 -- -- 87
2020-11-13 18:00:00 15.4 0 Calma 10 Noroeste 0 -- -- 74
2020-11-13 17:00:00 19 4 Norte 14 Nordeste 0 -- -- 60
2020-11-13 16:00:00 20.3 9 Nordeste 15 Nordeste 0 -- -- 53
2020-11-13 15:00:00 21.4 8 Sudeste 16 Sudeste 0 -- -- 48
2020-11-13 14:00:00 21.5 6 Este 19 Sudeste 0 -- -- 49
2020-11-13 13:00:00 20.6 13 Sudeste 22 Sudeste 0 -- -- 55
2020-11-13 12:00:00 19.9 9 Sudeste 18 Sudeste 0 -- -- 63
2020-11-13 11:00:00 17.9 10 Sudeste 23 Sudeste 0 -- -- 66
2020-11-13 10:00:00 14.8 10 Sudeste 23 Sudeste 0 -- -- 78
2020-11-13 09:00:00 13 10 Sudeste 20 Sudeste 0 -- -- 81
2020-11-13 08:00:00 12.2 6 Sur 11 Sur 0 -- -- 85
2020-11-13 07:00:00 12 5 Sudeste 14 Sur 0 -- -- 87
2020-11-13 06:00:00 12.2 9 Sur 13 Sur 0 -- -- 89
2020-11-13 05:00:00 12.4 6 Sudeste 11 Sur 0 -- -- 90
2020-11-13 04:00:00 11.1 4 Sudeste 9 Sur 0 -- -- 94
2020-11-13 03:00:00 10.7 3 Noroeste 8 Noroeste 0 -- -- 95
2020-11-13 02:00:00 10.6 2 Oeste 12 Sudeste 0 -- -- 91
2020-11-13 01:00:00 12 8 Sur 17 Sudeste 0 -- -- 92
2020-11-13 00:00:00 10.6 6 Sudeste 14 Sur 0 -- -- 97
2020-11-12 23:00:00 9.8 3 Sur 8 Sur 0 -- -- 98
2020-11-12 22:00:00 10.4 3 Oeste 6 Sudoeste 0 -- -- 98
2020-11-12 21:00:00 10.6 0 Calma 6 Sudeste 0 -- -- 95
2020-11-12 20:00:00 11.8 4 Sudeste 8 Sur 0 -- -- 94
2020-11-12 19:00:00 13.1 2 Sur 9 Sudeste 0 -- -- 90
2020-11-12 18:00:00 15.1 4 Oeste 6 Oeste 0 -- -- 85
2020-11-12 17:00:00 17.3 5 Nordeste 14 Nordeste 0 -- -- 78
2020-11-12 16:00:00 18.5 5 Norte 13 Nordeste 0 -- -- 63
2020-11-12 15:00:00 18.5 6 Nordeste 13 Nordeste 0 -- -- 68
2020-11-12 14:00:00 18.5 8 Nordeste 13 Nordeste 0 -- -- 70
2020-11-12 13:00:00 18.8 8 Nordeste 11 Nordeste 0 -- -- 63
2020-11-12 12:00:00 18.4 2 Este 10 Sudeste -- -- -- 60
2020-11-12 11:00:00 15.5 8 Sudeste 17 Sudeste -- -- -- 73
2020-11-12 10:00:00 13.5 8 Sudeste 13 Sudeste 0 -- -- 81
2020-11-12 09:00:00 11.8 5 Sudeste 10 Sudeste 0 -- -- 87
2020-11-12 08:00:00 12.3 6 Sur 16 Sudeste 0 -- -- 80
2020-11-12 07:00:00 11.6 8 Sur 13 Sur 0 -- -- 88
2020-11-12 06:00:00 11.4 6 Sudeste 9 Sur 0 -- -- 88
2020-11-12 05:00:00 12.6 2 Este 10 Sudeste 0 -- -- 83
2020-11-12 04:00:00 12.7 8 Sur 17 Sur 0 -- -- 83
2020-11-12 03:00:00 12.9 7 Sur 13 Sudeste 0 -- -- 82
2020-11-12 02:00:00 12.5 0 Calma 11 Sur 0 -- -- 88
2020-11-12 01:00:00 12.6 5 Sur 10 Sur 0 -- -- 89
2020-11-12 00:00:00 12 3 Sur 9 Sur 0 -- -- 92
2020-11-11 23:00:00 12.1 6 Sur 10 Sudeste 0 -- -- 92
2020-11-11 22:00:00 11.8 4 Sudoeste 9 Sur 0 -- -- 95
2020-11-11 21:00:00 12.2 0 Calma 10 Sur 0 -- -- 93
2020-11-11 20:00:00 12.6 6 Sudeste 11 Sur 0 -- -- 93
2020-11-11 19:00:00 13.3 2 Oeste 9 Sudeste 0 -- -- 92
2020-11-11 18:00:00 14.5 2 Sur 5 Noroeste 0 -- -- 89
2020-11-11 17:00:00 16.2 2 Oeste 10 Norte 0 -- -- 82
2020-11-11 16:00:00 17.1 6 Norte 12 Norte 0 -- -- 79
2020-11-11 15:00:00 17.4 7 Nordeste 10 Nordeste 0 -- -- 70
2020-11-11 14:00:00 18.5 5 Norte 11 Nordeste 0 -- -- 67
2020-11-11 13:00:00 17.5 5 Nordeste 9 Nordeste 0 -- -- 70
2020-11-11 12:00:00 16.7 3 Nordeste 6 Este 0 -- -- 75
2020-11-11 11:00:00 13.3 0 Calma 5 Sudeste 0 -- -- 99
2020-11-11 10:00:00 9.6 2 Sur 5 Oeste 0 -- -- 100
2020-11-11 09:00:00 7.5 3 Sur 6 Sudeste 0 -- -- 100
2020-11-11 08:00:00 5.9 2 Sudoeste 6 Sudoeste 0 -- -- 100
2020-11-11 07:00:00 6.3 3 Sudeste 9 Sur 0 -- -- 100
2020-11-11 06:00:00 6.7 3 Sudeste 10 Sudeste 0 -- -- 100
2020-11-11 05:00:00 7 5 Sur 10 Sur 0 -- -- 100
2020-11-11 04:00:00 7.4 5 Sudeste 9 Sur 0 -- -- 100
2020-11-11 03:00:00 8.6 3 Oeste 10 Sur 0 -- -- 100
2020-11-11 02:00:00 8.7 3 Sur 11 Sudeste 0 -- -- 100
2020-11-11 01:00:00 8.9 3 Sudeste 8 Sur 0 -- -- 99
2020-11-11 00:00:00 9.8 6 Sur 9 Sudeste 0 -- -- 99
2020-11-10 23:00:00 10.8 5 Sur 10 Sur 0 -- -- 99
2020-11-10 22:00:00 11.1 6 Sur 14 Sur 0 -- -- 97
2020-11-10 21:00:00 11.3 5 Sur 10 Sur 0 -- -- 96
2020-11-10 20:00:00 11.8 3 Sudeste 6 Sudeste 0 -- -- 94
2020-11-10 19:00:00 14 3 Este 10 Nordeste 0 -- -- 88
2020-11-10 18:00:00 15.4 8 Nordeste 13 Nordeste 0 -- -- 84
2020-11-10 17:00:00 16.3 8 Nordeste 22 Nordeste 0 -- -- 82
2020-11-10 16:00:00 16.6 14 Nordeste 23 Nordeste 0 -- -- 81
2020-11-10 15:00:00 17 13 Nordeste 20 Nordeste 0 -- -- 79
2020-11-10 14:00:00 17.7 8 Nordeste 14 Nordeste 0 -- -- 76
2020-11-10 13:00:00 18.1 4 Sudeste 9 Sudeste 0 -- -- 74
2020-11-10 12:00:00 16.3 5 Sudeste 9 Sudeste 0 -- -- 88
2020-11-10 11:00:00 14.2 5 Sudeste 10 Sudeste 0 -- -- 99
2020-11-10 10:00:00 13 5 Sudeste 10 Sur 0 -- -- 100
2020-11-10 09:00:00 12.3 5 Sur 13 Sur 0 -- -- 99
2020-11-10 08:00:00 12.3 8 Sur 15 Sudeste 0 -- -- 99
2020-11-10 07:00:00 12.8 7 Sudeste 14 Sudeste 0 -- -- 99
2020-11-10 06:00:00 13.1 6 Sudeste 10 Sudeste 0 -- -- 99
2020-11-10 05:00:00 13.2 5 Sudeste 9 Sudeste 2.6 -- -- 99
2020-11-10 04:00:00 13.4 4 Sur 7 Sudeste 4.2 -- -- 98
2020-11-10 03:00:00 13.6 5 Oeste 12 Sudeste 3.4 -- -- 98
2020-11-10 02:00:00 13.5 6 Sudeste 14 Sudeste 0 -- -- 97
2020-11-10 01:00:00 13.7 6 Sur 12 Sur 0 -- -- 96
2020-11-10 00:00:00 13.7 6 Sudeste 11 Sur 0 -- -- 95
2020-11-09 23:00:00 14 3 Sur 13 Sur 0 -- -- 93
2020-11-09 22:00:00 14.7 7 Sur 13 Sudeste 0 -- -- 93
2020-11-09 21:00:00 14.5 3 Sudoeste 5 Sudeste 0 -- -- 91
2020-11-09 20:00:00 14.6 3 Sudeste 5 Sur 0 -- -- 91
2020-11-09 19:00:00 14.6 2 Sudeste 6 Oeste 0 -- -- 89
2020-11-09 18:00:00 16 2 Oeste 6 Nordeste 0 -- -- 80
2020-11-09 17:00:00 17.7 4 Nordeste 10 Norte 0 -- -- 70
2020-11-09 16:00:00 19 6 Nordeste 13 Nordeste 0 -- -- 65
2020-11-09 15:00:00 19.7 7 Nordeste 13 Nordeste 0 -- -- 57
2020-11-09 14:00:00 19.8 6 Nordeste 13 Nordeste 0 -- -- 57
2020-11-09 13:00:00 19.8 6 Nordeste 14 Nordeste 0 -- -- 57
2020-11-09 12:00:00 20.6 7 Sudeste 10 Sudeste 0 -- -- 48
2020-11-09 11:00:00 18.6 5 Sur 10 Sur 0 -- -- 59
2020-11-09 10:00:00 15.5 4 Sur 10 Sur 0 -- -- 70
2020-11-09 09:00:00 12.5 7 Sur 12 Sur 0 -- -- 77
2020-11-09 08:00:00 13.3 3 Noroeste 14 Sudeste 0 -- -- 72
2020-11-09 07:00:00 16 5 Sur 19 Sudoeste 0 -- -- 61
2020-11-09 06:00:00 17.6 9 Sudoeste 23 Sudoeste 0 -- -- 53
2020-11-09 05:00:00 13.1 5 Oeste 11 Noroeste 0 -- -- 78
2020-11-09 04:00:00 14 5 Noroeste 13 Sur 0 -- -- 74
2020-11-09 03:00:00 16.4 7 Sur 17 Sur 0 -- -- 64
2020-11-09 02:00:00 14.8 3 Sudeste 13 Sudoeste 0.6 -- -- 80
2020-11-09 01:00:00 16.4 12 Sur 23 Sur 0.6 -- -- 68
2020-11-09 00:00:00 15.2 4 Oeste 12 Noroeste 0 -- -- 71
2020-11-08 23:00:00 16 4 Oeste 10 Oeste 0 -- -- 66
2020-11-08 22:00:00 18.6 7 Sudoeste 22 Sur 0 -- -- 52
2020-11-08 21:00:00 17.6 6 Sudoeste 13 Sur 0 -- -- 58
2020-11-08 20:00:00 19.5 5 Sudoeste 28 Sudeste 0 -- -- 51
2020-11-08 19:00:00 18.8 12 Sur 28 Sudeste 0 -- -- 55
2020-11-08 18:00:00 16.4 3 Noroeste 13 Noroeste 0 -- -- 80
2020-11-08 17:00:00 18.1 3 Noroeste 8 Sudoeste 0 -- -- 74
2020-11-08 16:00:00 20.8 5 Sudoeste 15 Oeste 0 -- -- 52
2020-11-08 15:00:00 22.7 3 Sudeste 23 Sudeste 0 -- -- 47
2020-11-08 14:00:00 21.6 12 Sudeste 30 Sudeste 0 -- -- 49
2020-11-08 13:00:00 21.9 14 Sudeste 31 Sudeste 0 -- -- 49
2020-11-08 12:00:00 21.4 11 Sudeste 20 Sudeste 0 -- -- 49
2020-11-08 11:00:00 21 6 Sur 17 Sudeste 0 -- -- 53
2020-11-08 10:00:00 20 8 Sudoeste 16 Sudoeste 0 -- -- 52
2020-11-08 09:00:00 16.8 5 Sur 10 Sudoeste 0 -- -- 69
2020-11-08 08:00:00 15.4 8 Noroeste 17 Este 0 -- -- 72
2020-11-08 07:00:00 15.1 6 Sur 17 Sur 0 -- -- 73
2020-11-08 06:00:00 11 4 Oeste 9 Noroeste 0 -- -- 94
2020-11-08 05:00:00 10.3 3 Oeste 9 Oeste 0 -- -- 96
2020-11-08 04:00:00 9.9 5 Oeste 9 Noroeste 0 -- -- 98
2020-11-08 03:00:00 9.6 3 Norte 8 Noroeste 0 -- -- 98
2020-11-08 02:00:00 9.6 0 Calma 5 Oeste 0 -- -- 98
2020-11-08 01:00:00 10 0 Calma 6 Sudoeste 0 -- -- 99
2020-11-08 00:00:00 10.4 0 Calma -- -- 0 -- -- 98
2020-11-07 23:00:00 11.4 0 Calma 8 Sudeste 0 -- -- 98
2020-11-07 22:00:00 12.4 3 Sudeste 10 Sur 0 -- -- 97
2020-11-07 21:00:00 12.9 4 Sudeste 8 Sur 0 -- -- 96
2020-11-07 20:00:00 14.1 5 Sur 8 Sur 0 -- -- 94
2020-11-07 19:00:00 15.7 0 Calma 7 Noroeste 0 -- -- 90
2020-11-07 18:00:00 17.5 3 Este 7 Nordeste 0 -- -- 84
2020-11-07 17:00:00 18 0 Calma 9 Nordeste 0 -- -- 82
2020-11-07 16:00:00 18.3 5 Norte 14 Norte 0 -- -- 80
2020-11-07 15:00:00 20.5 6 Nordeste 17 Sudoeste 0 -- -- 65
2020-11-07 14:00:00 21.6 10 Oeste 26 Oeste 0 -- -- 53
2020-11-07 13:00:00 20.3 5 Sudoeste 25 Sur 0 -- -- 62
2020-11-07 12:00:00 19 6 Sur 12 Sur 0 -- -- 69
2020-11-07 11:00:00 17 5 Sudeste 8 Sudeste 0 -- -- 82
2020-11-07 10:00:00 15.8 4 Sur 13 Sudeste 0 -- -- 84
2020-11-07 09:00:00 15.7 3 Este 15 Sudeste 0.2 -- -- 84
2020-11-07 08:00:00 16.3 3 Nordeste 22 Sur 0.2 -- -- 80
2020-11-07 07:00:00 17.7 11 Sur 37 Sudeste 0 -- -- 71
2020-11-07 06:00:00 20.3 26 Sudeste 49 Sudeste 0 -- -- 59
2020-11-07 05:00:00 19.9 15 Sudeste 30 Sudeste 0 -- -- 66
2020-11-07 04:00:00 19.2 5 Sudeste 21 Este 0 -- -- 70
2020-11-07 03:00:00 19.1 3 Sudeste 22 Nordeste 0 -- -- 71
2020-11-07 02:00:00 19.7 10 Este 23 Nordeste 0 -- -- 69
2020-11-07 01:00:00 19 9 Este 17 Nordeste 0 -- -- 70
2020-11-07 00:00:00 19.4 3 Este 21 Sur 0 -- -- 68
2020-11-06 23:00:00 21.4 16 Sur 41 Sur 0 -- -- 60
2020-11-06 22:00:00 21 17 Sudeste 37 Sudeste 0 -- -- 62
2020-11-06 21:00:00 21 15 Sudeste 42 Sudeste 0 -- -- 63
2020-11-06 20:00:00 21 14 Sudeste 46 Sudeste 0 -- -- 63
2020-11-06 19:00:00 21.2 22 Sur 49 Sur 0 -- -- 63
2020-11-06 18:00:00 21.1 27 Sudeste 56 Sur 0 -- -- 63
2020-11-06 17:00:00 21.2 25 Sur 61 Sudeste 0 -- -- 61
2020-11-06 16:00:00 20.7 36 Sudeste 72 Sudeste 0 -- -- 63
2020-11-06 15:00:00 20.8 35 Sudeste 67 Sudeste 0 -- -- 62
2020-11-06 14:00:00 21.7 38 Sudeste 57 Sudeste 0 -- -- 60
2020-11-06 13:00:00 21.7 22 Sudeste 48 Sudeste 0 -- -- 59
2020-11-06 12:00:00 20.4 10 Sudeste 33 Sudeste 0 -- -- 63
2020-11-06 11:00:00 19.6 4 Noroeste 13 Oeste 0 -- -- 66
2020-11-06 10:00:00 19.2 10 Noroeste 17 Noroeste 0 -- -- 66
2020-11-06 09:00:00 18.3 6 Oeste 26 Oeste 0 -- -- 67
2020-11-06 08:00:00 17.5 8 Sudoeste 19 Oeste 0 -- -- 69
2020-11-06 07:00:00 16.1 3 Sur 13 Noroeste 0 -- -- 76
2020-11-06 06:00:00 17 5 Nordeste 11 Este 0 -- -- 71
2020-11-06 05:00:00 16.2 6 Este 16 Este 0 -- -- 76
2020-11-06 04:00:00 15.8 6 Este 15 Sudeste 0 -- -- 77
2020-11-06 03:00:00 17.2 7 Sur 34 Sudeste 0 -- -- 71
2020-11-06 02:00:00 17.2 11 Sudeste 25 Sudeste 0 -- -- 72
2020-11-06 01:00:00 16 3 Sudeste 19 Sur 0 -- -- 77
2020-11-06 00:00:00 16 6 Este 15 Nordeste 0 -- -- 78
2020-11-05 23:00:00 15 8 Este 17 Nordeste 0 -- -- 82
2020-11-05 22:00:00 14.9 8 Nordeste 16 Nordeste 0 -- -- 81
2020-11-05 21:00:00 15.2 10 Nordeste 22 Nordeste 0 -- -- 78
2020-11-05 20:00:00 14.6 4 Norte 22 Nordeste 0 -- -- 78
2020-11-05 19:00:00 14.9 12 Nordeste 22 Nordeste 0 -- -- 78
2020-11-05 18:00:00 14.5 8 Oeste 13 Oeste 0 -- -- 81
2020-11-05 17:00:00 14.9 4 Sudeste 26 Nordeste 0 -- -- 78
2020-11-05 16:00:00 15 22 Nordeste 37 Nordeste 0 -- -- 77
2020-11-05 15:00:00 15.3 27 Nordeste 40 Nordeste 0 -- -- 74
2020-11-05 14:00:00 14.9 17 Nordeste 30 Nordeste 0 -- -- 71
2020-11-05 13:00:00 15.6 9 Nordeste 22 Este 0 -- -- 62
2020-11-05 12:00:00 14.2 7 Este 26 Este 0 -- -- 59
2020-11-05 11:00:00 13.6 5 Este 15 Nordeste 0 -- -- 65
2020-11-05 10:00:00 10.9 3 Sur 9 Sudeste 0 -- -- 81
2020-11-05 09:00:00 8.7 5 Sudeste 13 Sudeste 0 -- -- 90
2020-11-05 08:00:00 8.3 4 Sudeste 9 Sur 0 -- -- 89
2020-11-05 07:00:00 8.4 4 Sudeste 9 Sur 0 -- -- 91
2020-11-05 06:00:00 8.7 3 Sur 10 Sur 0 -- -- 90
2020-11-05 05:00:00 9.3 5 Sudeste 10 Sudeste 0 -- -- 90
2020-11-05 04:00:00 10.3 0 Calma 9 Sudeste 0 -- -- 85
2020-11-05 03:00:00 10.6 4 Sudeste 9 Sudeste 0 -- -- 83
2020-11-05 02:00:00 10.7 3 Sudeste 9 Sudeste 0 -- -- 80
2020-11-05 01:00:00 10.8 3 Sudeste 9 Sudeste 0 -- -- 79
2020-11-05 00:00:00 12 7 Sudeste 19 Sudeste 0 -- -- 73